sensor_id;sensor_type;location;lat;lon;timestamp;P1;durP1;ratioP1;P2;durP2;ratioP2
65377;SDS011;51982;51.042;13.806;2024-02-21T16:41:41;4.68;;;1.65;;
65377;SDS011;51982;51.042;13.806;2024-02-21T16:44:07;22.15;;;2.40;;
65377;SDS011;51982;51.042;13.806;2024-02-21T16:46:32;9.25;;;1.92;;
65377;SDS011;51982;51.042;13.806;2024-02-21T16:48:58;5.68;;;3.03;;
65377;SDS011;51982;51.042;13.806;2024-02-21T16:51:24;3.70;;;1.92;;
65377;SDS011;51982;51.042;13.806;2024-02-21T16:53:49;5.93;;;2.15;;
65377;SDS011;51982;51.042;13.806;2024-02-21T16:56:15;6.47;;;2.60;;
65377;SDS011;51982;51.042;13.806;2024-02-21T16:58:43;7.28;;;3.70;;
65377;SDS011;51982;51.042;13.806;2024-02-21T17:01:08;5.97;;;2.55;;
65377;SDS011;51982;51.042;13.806;2024-02-21T17:03:35;4.82;;;2.08;;
65377;SDS011;51982;51.042;13.806;2024-02-21T17:06:01;10.50;;;2.85;;
65377;SDS011;51982;51.042;13.806;2024-02-21T17:08:28;32.45;;;9.57;;
65377;SDS011;51982;51.042;13.806;2024-02-21T17:10:55;15.48;;;6.10;;
65377;SDS011;51982;51.042;13.806;2024-02-21T17:13:21;7.13;;;2.28;;
65377;SDS011;51982;51.042;13.806;2024-02-21T17:15:48;13.85;;;7.03;;
65377;SDS011;51982;51.042;13.806;2024-02-21T17:18:14;36.10;;;17.67;;
65377;SDS011;51982;51.042;13.806;2024-02-21T17:20:40;103.20;;;40.03;;
65377;SDS011;51982;51.042;13.806;2024-02-21T17:23:06;67.15;;;30.00;;
65377;SDS011;51982;51.042;13.806;2024-02-21T17:25:31;110.18;;;47.25;;
65377;SDS011;51982;51.042;13.806;2024-02-21T17:27:57;16.90;;;6.45;;
65377;SDS011;51982;51.042;13.806;2024-02-21T17:30:22;7.93;;;3.20;;
65377;SDS011;51982;51.042;13.806;2024-02-21T17:32:47;10.35;;;3.70;;
65377;SDS011;51982;51.042;13.806;2024-02-21T17:59:07;11.00;;;2.90;;
65377;SDS011;51982;51.042;13.806;2024-02-21T18:01:32;10.65;;;3.25;;
65377;SDS011;51982;51.042;13.806;2024-02-21T18:03:57;6.68;;;3.17;;
65377;SDS011;51982;51.042;13.806;2024-02-21T18:06:23;8.30;;;4.00;;
65377;SDS011;51982;51.042;13.806;2024-02-21T18:08:49;7.30;;;3.40;;
65377;SDS011;51982;51.042;13.806;2024-02-21T18:11:16;5.75;;;3.65;;
65377;SDS011;51982;51.042;13.806;2024-02-21T18:13:41;10.55;;;3.30;;
65377;SDS011;51982;51.042;13.806;2024-02-21T18:16:07;10.63;;;4.50;;
65377;SDS011;51982;51.042;13.806;2024-02-21T18:18:34;10.20;;;4.18;;
65377;SDS011;51982;51.042;13.806;2024-02-21T18:20:59;6.65;;;3.70;;
65377;SDS011;51982;51.042;13.806;2024-02-21T18:23:25;12.25;;;3.97;;
65377;SDS011;51982;51.042;13.806;2024-02-21T18:25:53;9.07;;;3.63;;
65377;SDS011;51982;51.042;13.806;2024-02-21T18:28:18;6.80;;;3.13;;
65377;SDS011;51982;51.042;13.806;2024-02-21T18:30:44;5.35;;;3.03;;
65377;SDS011;51982;51.042;13.806;2024-02-21T18:33:09;5.97;;;3.30;;
65377;SDS011;51982;51.042;13.806;2024-02-21T18:35:34;10.75;;;3.88;;
65377;SDS011;51982;51.042;13.806;2024-02-21T18:38:00;4.07;;;2.40;;
65377;SDS011;51982;51.042;13.806;2024-02-21T18:40:27;5.55;;;2.60;;
65377;SDS011;51982;51.042;13.806;2024-02-21T18:42:53;5.22;;;2.65;;
65377;SDS011;51982;51.042;13.806;2024-02-21T18:45:23;5.43;;;2.40;;
65377;SDS011;51982;51.042;13.806;2024-02-21T18:47:49;7.00;;;2.70;;
65377;SDS011;51982;51.042;13.806;2024-02-21T18:50:14;5.13;;;2.33;;
65377;SDS011;51982;51.042;13.806;2024-02-21T18:52:40;5.03;;;1.77;;
65377;SDS011;51982;51.042;13.806;2024-02-21T18:55:05;3.65;;;1.90;;
65377;SDS011;51982;51.042;13.806;2024-02-21T18:57:31;5.00;;;2.22;;
65377;SDS011;51982;51.042;13.806;2024-02-21T18:59:58;5.35;;;2.75;;
65377;SDS011;51982;51.042;13.806;2024-02-21T19:02:23;4.93;;;2.30;;
65377;SDS011;51982;51.042;13.806;2024-02-21T19:04:49;4.28;;;2.00;;
65377;SDS011;51982;51.042;13.806;2024-02-21T19:07:14;9.02;;;3.20;;
65377;SDS011;51982;51.042;13.806;2024-02-21T19:09:41;8.13;;;3.38;;
65377;SDS011;51982;51.042;13.806;2024-02-21T19:12:07;6.35;;;3.00;;
65377;SDS011;51982;51.042;13.806;2024-02-21T19:14:32;5.38;;;2.75;;
65377;SDS011;51982;51.042;13.806;2024-02-21T19:16:58;7.95;;;2.75;;
65377;SDS011;51982;51.042;13.806;2024-02-21T19:19:25;5.43;;;2.45;;
65377;SDS011;51982;51.042;13.806;2024-02-21T19:21:50;3.22;;;2.13;;
65377;SDS011;51982;51.042;13.806;2024-02-21T19:24:15;7.53;;;2.28;;
65377;SDS011;51982;51.042;13.806;2024-02-21T19:26:41;5.32;;;1.80;;
65377;SDS011;51982;51.042;13.806;2024-02-21T19:29:06;3.40;;;2.00;;
65377;SDS011;51982;51.042;13.806;2024-02-21T19:31:32;3.25;;;2.03;;
65377;SDS011;51982;51.042;13.806;2024-02-21T19:33:58;5.90;;;2.30;;
65377;SDS011;51982;51.042;13.806;2024-02-21T19:36:24;4.63;;;1.70;;
65377;SDS011;51982;51.042;13.806;2024-02-21T19:38:51;7.65;;;2.10;;
65377;SDS011;51982;51.042;13.806;2024-02-21T19:41:16;3.95;;;2.00;;
65377;SDS011;51982;51.042;13.806;2024-02-21T19:43:42;4.97;;;2.42;;
65377;SDS011;51982;51.042;13.806;2024-02-21T19:46:08;5.70;;;2.00;;
65377;SDS011;51982;51.042;13.806;2024-02-21T19:48:35;4.55;;;2.10;;
65377;SDS011;51982;51.042;13.806;2024-02-21T19:51:01;3.75;;;1.67;;
65377;SDS011;51982;51.042;13.806;2024-02-21T19:53:28;5.57;;;1.83;;
65377;SDS011;51982;51.042;13.806;2024-02-21T20:37:57;2.78;;;1.15;;
65377;SDS011;51982;51.042;13.806;2024-02-21T20:40:22;3.40;;;1.10;;
65377;SDS011;51982;51.042;13.806;2024-02-21T20:42:49;4.03;;;1.40;;
65377;SDS011;51982;51.042;13.806;2024-02-21T20:45:27;3.00;;;1.48;;
65377;SDS011;51982;51.042;13.806;2024-02-21T20:48:03;8.13;;;1.52;;
65377;SDS011;51982;51.042;13.806;2024-02-21T20:50:40;5.43;;;1.40;;
65377;SDS011;51982;51.042;13.806;2024-02-21T20:53:15;4.85;;;1.42;;
